sensor_id;sensor_type;location;lat;lon;timestamp;pressure;altitude;pressure_sealevel;temperature;humidity
61571;BME280;47463;49.884;10.010;2024-03-08T00:00:01;102200;;;0.7;71
61571;BME280;47463;49.884;10.010;2024-03-08T00:05:01;102180;;;0.6;71
61571;BME280;47463;49.884;10.010;2024-03-08T00:10:01;102190;;;0.6;72
61571;BME280;47463;49.884;10.010;2024-03-08T00:15:01;102190;;;0.5;72
61571;BME280;47463;49.884;10.010;2024-03-08T00:20:01;102180;;;0.5;72
61571;BME280;47463;49.884;10.010;2024-03-08T00:25:01;102180;;;0.4;72
61571;BME280;47463;49.884;10.010;2024-03-08T00:30:01;102190;;;0.3;73
61571;BME280;47463;49.884;10.010;2024-03-08T00:35:01;102180;;;0.2;73
61571;BME280;47463;49.884;10.010;2024-03-08T00:40:01;102180;;;0.2;73
61571;BME280;47463;49.884;10.010;2024-03-08T00:45:01;102180;;;0.2;73
61571;BME280;47463;49.884;10.010;2024-03-08T00:50:01;102170;;;0.3;73
61571;BME280;47463;49.884;10.010;2024-03-08T00:55:01;102170;;;0.2;73
61571;BME280;47463;49.884;10.010;2024-03-08T01:00:02;102170;;;0.2;74
61571;BME280;47463;49.884;10.010;2024-03-08T01:05:01;102170;;;0.2;74
61571;BME280;47463;49.884;10.010;2024-03-08T01:10:01;102160;;;0.1;74
61571;BME280;47463;49.884;10.010;2024-03-08T01:15:01;102160;;;0.1;74
61571;BME280;47463;49.884;10.010;2024-03-08T01:20:01;102150;;;0.1;74
61571;BME280;47463;49.884;10.010;2024-03-08T01:25:01;102140;;;0.1;75
61571;BME280;47463;49.884;10.010;2024-03-08T01:30:01;102140;;;0.1;75
61571;BME280;47463;49.884;10.010;2024-03-08T01:35:01;102140;;;0.1;75
61571;BME280;47463;49.884;10.010;2024-03-08T01:40:01;102130;;;0.1;75
61571;BME280;47463;49.884;10.010;2024-03-08T01:45:01;102120;;;0.1;75
61571;BME280;47463;49.884;10.010;2024-03-08T01:50:01;102110;;;0.1;75
61571;BME280;47463;49.884;10.010;2024-03-08T01:55:01;102100;;;0.1;75
61571;BME280;47463;49.884;10.010;2024-03-08T02:00:01;102100;;;-0.2;76
61571;BME280;47463;49.884;10.010;2024-03-08T02:05:01;102100;;;-0.2;76
61571;BME280;47463;49.884;10.010;2024-03-08T02:10:01;102100;;;-0.3;76
61571;BME280;47463;49.884;10.010;2024-03-08T02:15:01;102090;;;-0.3;76
61571;BME280;47463;49.884;10.010;2024-03-08T02:20:01;102090;;;-0.4;77
61571;BME280;47463;49.884;10.010;2024-03-08T02:25:01;102080;;;-0.4;77
61571;BME280;47463;49.884;10.010;2024-03-08T02:30:01;102080;;;-0.3;77
61571;BME280;47463;49.884;10.010;2024-03-08T02:35:01;102080;;;-0.2;77
61571;BME280;47463;49.884;10.010;2024-03-08T02:40:01;102070;;;-0.2;77
61571;BME280;47463;49.884;10.010;2024-03-08T02:45:01;102070;;;-0.3;77
61571;BME280;47463;49.884;10.010;2024-03-08T02:50:01;102070;;;-0.2;77
61571;BME280;47463;49.884;10.010;2024-03-08T02:55:01;102070;;;-0.4;77
61571;BME280;47463;49.884;10.010;2024-03-08T03:00:01;102060;;;-0.4;77
61571;BME280;47463;49.884;10.010;2024-03-08T03:05:01;102060;;;-0.5;78
61571;BME280;47463;49.884;10.010;2024-03-08T03:10:01;102050;;;-0.6;78
61571;BME280;47463;49.884;10.010;2024-03-08T03:15:01;102050;;;-0.6;78
61571;BME280;47463;49.884;10.010;2024-03-08T03:20:01;102040;;;-0.7;79
61571;BME280;47463;49.884;10.010;2024-03-08T03:25:01;102040;;;-0.7;79
61571;BME280;47463;49.884;10.010;2024-03-08T03:30:01;102030;;;-0.7;79
61571;BME280;47463;49.884;10.010;2024-03-08T03:35:01;102020;;;-0.7;79
61571;BME280;47463;49.884;10.010;2024-03-08T03:40:01;102020;;;-0.7;79
61571;BME280;47463;49.884;10.010;2024-03-08T03:45:01;102020;;;-0.8;79
61571;BME280;47463;49.884;10.010;2024-03-08T03:50:01;102010;;;-0.8;79
61571;BME280;47463;49.884;10.010;2024-03-08T03:55:01;102020;;;-0.8;80
61571;BME280;47463;49.884;10.010;2024-03-08T04:00:01;102020;;;-0.7;80
61571;BME280;47463;49.884;10.010;2024-03-08T04:05:01;102020;;;-0.5;79
61571;BME280;47463;49.884;10.010;2024-03-08T04:10:01;102020;;;-0.5;79
61571;BME280;47463;49.884;10.010;2024-03-08T04:15:01;102000;;;-0.4;79
61571;BME280;47463;49.884;10.010;2024-03-08T04:20:01;102000;;;-0.4;79
61571;BME280;47463;49.884;10.010;2024-03-08T04:25:01;102000;;;-0.5;79
61571;BME280;47463;49.884;10.010;2024-03-08T04:30:01;102000;;;-0.6;79
61571;BME280;47463;49.884;10.010;2024-03-08T04:35:01;102010;;;-0.7;79
61571;BME280;47463;49.884;10.010;2024-03-08T04:40:01;102000;;;-0.7;79
61571;BME280;47463;49.884;10.010;2024-03-08T04:45:01;101990;;;-0.6;79
61571;BME280;47463;49.884;10.010;2024-03-08T04:50:01;102000;;;-0.7;79
61571;BME280;47463;49.884;10.010;2024-03-08T04:55:01;101990;;;-0.7;79
61571;BME280;47463;49.884;10.010;2024-03-08T05:00:01;101990;;;-0.8;80
61571;BME280;47463;49.884;10.010;2024-03-08T05:05:01;101990;;;-0.8;80
61571;BME280;47463;49.884;10.010;2024-03-08T05:10:01;101990;;;-0.9;80
61571;BME280;47463;49.884;10.010;2024-03-08T05:15:01;101990;;;-0.9;80
61571;BME280;47463;49.884;10.010;2024-03-08T05:20:01;101990;;;-1;80
61571;BME280;47463;49.884;10.010;2024-03-08T05:25:01;102000;;;-1;80
61571;BME280;47463;49.884;10.010;2024-03-08T05:30:01;102000;;;-1.2;81
61571;BME280;47463;49.884;10.010;2024-03-08T05:35:01;102000;;;-1.3;81
61571;BME280;47463;49.884;10.010;2024-03-08T05:40:01;101990;;;-1.4;81
61571;BME280;47463;49.884;10.010;2024-03-08T05:45:01;101980;;;-1.4;81
61571;BME280;47463;49.884;10.010;2024-03-08T05:50:01;101980;;;-1.5;82
61571;BME280;47463;49.884;10.010;2024-03-08T05:55:01;101980;;;-1.5;82
61571;BME280;47463;49.884;10.010;2024-03-08T06:00:01;101980;;;-1.4;82
61571;BME280;47463;49.884;10.010;2024-03-08T06:05:01;101980;;;-1.2;82
61571;BME280;47463;49.884;10.010;2024-03-08T06:10:01;101980;;;-1.2;82
61571;BME280;47463;49.884;10.010;2024-03-08T06:15:01;101980;;;-1.1;82
61571;BME280;47463;49.884;10.010;2024-03-08T06:20:01;101990;;;-1;82
61571;BME280;47463;49.884;10.010;2024-03-08T06:25:01;101980;;;-0.8;81
61571;BME280;47463;49.884;10.010;2024-03-08T06:30:01;101980;;;-0.6;81
61571;BME280;47463;49.884;10.010;2024-03-08T06:35:01;101980;;;-0.3;80
61571;BME280;47463;49.884;10.010;2024-03-08T06:40:01;101980;;;-0.3;80
61571;BME280;47463;49.884;10.010;2024-03-08T06:45:01;101980;;;-0.3;80
61571;BME280;47463;49.884;10.010;2024-03-08T06:50:01;101980;;;0.2;79
61571;BME280;47463;49.884;10.010;2024-03-08T06:55:01;101990;;;0.4;78
61571;BME280;47463;49.884;10.010;2024-03-08T07:00:01;101980;;;0.7;78
61571;BME280;47463;49.884;10.010;2024-03-08T07:05:01;101980;;;1.1;77
61571;BME280;47463;49.884;10.010;2024-03-08T07:10:01;101980;;;1;77
61571;BME280;47463;49.884;10.010;2024-03-08T07:15:01;101970;;;0.7;77
61571;BME280;47463;49.884;10.010;2024-03-08T07:20:01;101970;;;0.7;77
61571;BME280;47463;49.884;10.010;2024-03-08T07:25:01;101970;;;0.7;78
61571;BME280;47463;49.884;10.010;2024-03-08T07:30:01;101950;;;0.8;77
61571;BME280;47463;49.884;10.010;2024-03-08T07:35:01;101960;;;1;77
61571;BME280;47463;49.884;10.010;2024-03-08T07:40:01;101960;;;1.2;77
61571;BME280;47463;49.884;10.010;2024-03-08T07:45:01;101950;;;1.4;76
61571;BME280;47463;49.884;10.010;2024-03-08T07:50:01;101950;;;1.5;76
61571;BME280;47463;49.884;10.010;2024-03-08T07:55:01;101930;;;1.6;75
61571;BME280;47463;49.884;10.010;2024-03-08T08:00:01;101930;;;1.9;75
61571;BME280;47463;49.884;10.010;2024-03-08T08:05:01;101930;;;2.3;74
61571;BME280;47463;49.884;10.010;2024-03-08T08:10:01;101920;;;2.6;73
61571;BME280;47463;49.884;10.010;2024-03-08T08:15:01;101910;;;2.7;72
61571;BME280;47463;49.884;10.010;2024-03-08T08:20:01;101910;;;2.8;72
61571;BME280;47463;49.884;10.010;2024-03-08T08:25:01;101890;;;2.9;72
61571;BME280;47463;49.884;10.010;2024-03-08T08:30:01;101890;;;3;71
61571;BME280;47463;49.884;10.010;2024-03-08T08:35:01;101880;;;3;71
61571;BME280;47463;49.884;10.010;2024-03-08T08:40:01;101870;;;3.4;71
61571;BME280;47463;49.884;10.010;2024-03-08T08:45:01;101860;;;3.4;71
61571;BME280;47463;49.884;10.010;2024-03-08T08:50:01;101850;;;3.5;70
61571;BME280;47463;49.884;10.010;2024-03-08T08:55:01;101840;;;3.8;70
61571;BME280;47463;49.884;10.010;2024-03-08T09:00:01;101840;;;3.9;69
61571;BME280;47463;49.884;10.010;2024-03-08T09:05:01;101830;;;4.1;69
61571;BME280;47463;49.884;10.010;2024-03-08T09:10:01;101830;;;4.3;68
61571;BME280;47463;49.884;10.010;2024-03-08T09:15:01;101820;;;4.2;67
61571;BME280;47463;49.884;10.010;2024-03-08T09:20:01;101810;;;4.3;67
61571;BME280;47463;49.884;10.010;2024-03-08T09:25:01;101800;;;4.6;66
61571;BME280;47463;49.884;10.010;2024-03-08T09:30:01;101780;;;4.8;66
61571;BME280;47463;49.884;10.010;2024-03-08T09:35:01;101770;;;5;66
61571;BME280;47463;49.884;10.010;2024-03-08T09:40:01;101770;;;5;65
61571;BME280;47463;49.884;10.010;2024-03-08T09:45:01;101750;;;5.2;65
61571;BME280;47463;49.884;10.010;2024-03-08T09:50:01;101740;;;5.3;64
61571;BME280;47463;49.884;10.010;2024-03-08T09:55:01;101740;;;5.2;63
61571;BME280;47463;49.884;10.010;2024-03-08T10:00:01;101730;;;5.3;63
61571;BME280;47463;49.884;10.010;2024-03-08T10:05:01;101740;;;5.5;63
61571;BME280;47463;49.884;10.010;2024-03-08T10:10:01;101720;;;5.6;63
61571;BME280;47463;49.884;10.010;2024-03-08T10:15:01;101710;;;5.7;62
61571;BME280;47463;49.884;10.010;2024-03-08T10:20:01;101700;;;5.7;61
61571;BME280;47463;49.884;10.010;2024-03-08T10:25:01;101690;;;5.8;62
61571;BME280;47463;49.884;10.010;2024-03-08T10:30:01;101700;;;6;61
61571;BME280;47463;49.884;10.010;2024-03-08T10:35:01;101680;;;6.3;60
61571;BME280;47463;49.884;10.010;2024-03-08T10:40:02;101680;;;6.4;60
61571;BME280;47463;49.884;10.010;2024-03-08T10:45:03;101680;;;6.3;59
61571;BME280;47463;49.884;10.010;2024-03-08T10:50:04;101670;;;6.3;58
61571;BME280;47463;49.884;10.010;2024-03-08T10:55:01;101670;;;6.4;59
61571;BME280;47463;49.884;10.010;2024-03-08T11:00:01;101660;;;6.6;58
61571;BME280;47463;49.884;10.010;2024-03-08T11:05:01;101660;;;6.6;59
61571;BME280;47463;49.884;10.010;2024-03-08T11:10:02;101660;;;6.8;59
61571;BME280;47463;49.884;10.010;2024-03-08T11:15:01;101650;;;6.9;57
61571;BME280;47463;49.884;10.010;2024-03-08T11:20:01;101640;;;6.7;57
61571;BME280;47463;49.884;10.010;2024-03-08T11:25:01;101630;;;7.1;58
61571;BME280;47463;49.884;10.010;2024-03-08T11:30:01;101620;;;7.4;56
61571;BME280;47463;49.884;10.010;2024-03-08T11:35:01;101610;;;7.3;56
61571;BME280;47463;49.884;10.010;2024-03-08T11:40:01;101610;;;7.4;56
61571;BME280;47463;49.884;10.010;2024-03-08T11:45:01;101590;;;7.5;55
61571;BME280;47463;49.884;10.010;2024-03-08T11:50:01;101580;;;7.5;55
61571;BME280;47463;49.884;10.010;2024-03-08T11:55:01;101590;;;7.7;54
61571;BME280;47463;49.884;10.010;2024-03-08T12:00:01;101560;;;8.1;54
61571;BME280;47463;49.884;10.010;2024-03-08T12:05:01;101570;;;8;54
61571;BME280;47463;49.884;10.010;2024-03-08T12:10:21;101550;;;8.2;52
61571;BME280;47463;49.884;10.010;2024-03-08T12:15:01;101540;;;8.1;52
61571;BME280;47463;49.884;10.010;2024-03-08T12:20:10;101550;;;8.3;52
61571;BME280;47463;49.884;10.010;2024-03-08T12:25:03;101530;;;8.4;52
61571;BME280;47463;49.884;10.010;2024-03-08T12:30:14;101520;;;8.7;51
61571;BME280;47463;49.884;10.010;2024-03-08T12:35:01;101520;;;8.9;49
61571;BME280;47463;49.884;10.010;2024-03-08T12:40:01;101510;;;8.8;50
61571;BME280;47463;49.884;10.010;2024-03-08T12:45:01;101510;;;8.8;49
61571;BME280;47463;49.884;10.010;2024-03-08T12:50:01;101510;;;9;49
61571;BME280;47463;49.884;10.010;2024-03-08T12:55:01;101490;;;9.1;49
61571;BME280;47463;49.884;10.010;2024-03-08T13:00:01;101490;;;9.1;49
61571;BME280;47463;49.884;10.010;2024-03-08T13:05:01;101470;;;9.5;48
61571;BME280;47463;49.884;10.010;2024-03-08T13:10:01;101470;;;9.5;48
61571;BME280;47463;49.884;10.010;2024-03-08T13:15:01;101460;;;9.5;47
61571;BME280;47463;49.884;10.010;2024-03-08T13:20:01;101460;;;9.6;47
61571;BME280;47463;49.884;10.010;2024-03-08T13:25:01;101450;;;9.7;46
61571;BME280;47463;49.884;10.010;2024-03-08T13:30:01;101440;;;9.7;46
61571;BME280;47463;49.884;10.010;2024-03-08T13:35:01;101430;;;9.8;46
61571;BME280;47463;49.884;10.010;2024-03-08T13:40:01;101420;;;9.8;45
61571;BME280;47463;49.884;10.010;2024-03-08T13:45:01;101430;;;9.9;45
61571;BME280;47463;49.884;10.010;2024-03-08T13:50:01;101420;;;10.2;46
61571;BME280;47463;49.884;10.010;2024-03-08T13:55:01;101410;;;10.1;45
61571;BME280;47463;49.884;10.010;2024-03-08T14:00:01;101400;;;10;44
61571;BME280;47463;49.884;10.010;2024-03-08T14:05:01;101400;;;10.3;44
61571;BME280;47463;49.884;10.010;2024-03-08T14:10:01;101380;;;10.4;44
61571;BME280;47463;49.884;10.010;2024-03-08T14:15:01;101370;;;10.3;43
61571;BME280;47463;49.884;10.010;2024-03-08T14:20:01;101370;;;10.3;43
61571;BME280;47463;49.884;10.010;2024-03-08T14:25:01;101350;;;10.3;42
61571;BME280;47463;49.884;10.010;2024-03-08T14:30:01;101350;;;10.4;43
61571;BME280;47463;49.884;10.010;2024-03-08T14:35:01;101330;;;10.5;45
61571;BME280;47463;49.884;10.010;2024-03-08T14:40:01;101320;;;10.4;43
61571;BME280;47463;49.884;10.010;2024-03-08T14:45:01;101320;;;10.4;43
61571;BME280;47463;49.884;10.010;2024-03-08T14:50:01;101320;;;10.4;43
61571;BME280;47463;49.884;10.010;2024-03-08T14:55:01;101310;;;10.5;44
61571;BME280;47463;49.884;10.010;2024-03-08T15:00:01;101310;;;10.3;44
61571;BME280;47463;49.884;10.010;2024-03-08T15:05:01;101310;;;10.3;44
61571;BME280;47463;49.884;10.010;2024-03-08T15:10:01;101300;;;10.3;44
61571;BME280;47463;49.884;10.010;2024-03-08T15:15:01;101290;;;10.3;45
61571;BME280;47463;49.884;10.010;2024-03-08T15:20:01;101280;;;10.2;45
61571;BME280;47463;49.884;10.010;2024-03-08T15:25:01;101270;;;10.2;45
61571;BME280;47463;49.884;10.010;2024-03-08T15:30:01;101260;;;10.2;45
61571;BME280;47463;49.884;10.010;2024-03-08T15:35:01;101260;;;10.2;45
61571;BME280;47463;49.884;10.010;2024-03-08T15:40:01;101250;;;10.2;45
61571;BME280;47463;49.884;10.010;2024-03-08T15:45:01;101250;;;10.1;44
61571;BME280;47463;49.884;10.010;2024-03-08T15:50:01;101250;;;10.2;45
61571;BME280;47463;49.884;10.010;2024-03-08T15:55:01;101240;;;10.1;45
61571;BME280;47463;49.884;10.010;2024-03-08T16:00:01;101240;;;10;46
61571;BME280;47463;49.884;10.010;2024-03-08T16:05:01;101240;;;10;45
61571;BME280;47463;49.884;10.010;2024-03-08T16:10:01;101240;;;9.9;46
61571;BME280;47463;49.884;10.010;2024-03-08T16:15:01;101230;;;9.8;46
61571;BME280;47463;49.884;10.010;2024-03-08T16:20:01;101230;;;9.7;46
61571;BME280;47463;49.884;10.010;2024-03-08T16:25:01;101220;;;9.7;47
61571;BME280;47463;49.884;10.010;2024-03-08T16:30:01;101210;;;9.6;47
61571;BME280;47463;49.884;10.010;2024-03-08T16:35:01;101210;;;9.4;49
61571;BME280;47463;49.884;10.010;2024-03-08T16:40:01;101210;;;9.2;49
61571;BME280;47463;49.884;10.010;2024-03-08T16:45:01;101210;;;9.1;49
61571;BME280;47463;49.884;10.010;2024-03-08T16:50:01;101200;;;9;50
61571;BME280;47463;49.884;10.010;2024-03-08T16:55:01;101200;;;8.8;51
61571;BME280;47463;49.884;10.010;2024-03-08T17:00:01;101200;;;8.6;51
61571;BME280;47463;49.884;10.010;2024-03-08T17:05:01;101190;;;8.3;52
61571;BME280;47463;49.884;10.010;2024-03-08T17:10:01;101190;;;8.1;53
61571;BME280;47463;49.884;10.010;2024-03-08T17:15:01;101190;;;8;53
61571;BME280;47463;49.884;10.010;2024-03-08T17:20:01;101190;;;7.9;53
61571;BME280;47463;49.884;10.010;2024-03-08T17:25:01;101190;;;7.8;53
61571;BME280;47463;49.884;10.010;2024-03-08T17:30:01;101190;;;7.6;54
61571;BME280;47463;49.884;10.010;2024-03-08T17:35:01;101190;;;7.3;55
61571;BME280;47463;49.884;10.010;2024-03-08T17:40:01;101190;;;7.2;56
61571;BME280;47463;49.884;10.010;2024-03-08T17:45:01;101200;;;7.3;55
61571;BME280;47463;49.884;10.010;2024-03-08T17:50:01;101200;;;7.1;56
61571;BME280;47463;49.884;10.010;2024-03-08T17:55:01;101210;;;7.1;56
61571;BME280;47463;49.884;10.010;2024-03-08T18:00:01;101210;;;6.9;56
61571;BME280;47463;49.884;10.010;2024-03-08T18:05:01;101210;;;6.9;56
61571;BME280;47463;49.884;10.010;2024-03-08T18:10:01;101210;;;6.9;57
61571;BME280;47463;49.884;10.010;2024-03-08T18:15:01;101200;;;6.8;57
61571;BME280;47463;49.884;10.010;2024-03-08T18:20:01;101210;;;6.7;57
61571;BME280;47463;49.884;10.010;2024-03-08T18:25:01;101200;;;6.7;57
61571;BME280;47463;49.884;10.010;2024-03-08T18:30:01;101210;;;6.5;58
61571;BME280;47463;49.884;10.010;2024-03-08T18:35:01;101210;;;6.2;59
61571;BME280;47463;49.884;10.010;2024-03-08T18:40:01;101200;;;6.1;59
61571;BME280;47463;49.884;10.010;2024-03-08T18:45:01;101190;;;6.1;59
61571;BME280;47463;49.884;10.010;2024-03-08T18:50:01;101200;;;6.1;59
61571;BME280;47463;49.884;10.010;2024-03-08T18:55:01;101200;;;6.1;59
61571;BME280;47463;49.884;10.010;2024-03-08T19:00:01;101190;;;6;59
61571;BME280;47463;49.884;10.010;2024-03-08T19:05:01;101190;;;5.9;60
61571;BME280;47463;49.884;10.010;2024-03-08T19:10:01;101190;;;5.9;60
61571;BME280;47463;49.884;10.010;2024-03-08T19:15:01;101180;;;5.7;61
61571;BME280;47463;49.884;10.010;2024-03-08T19:20:01;101180;;;5.6;61
61571;BME280;47463;49.884;10.010;2024-03-08T19:25:01;101180;;;5.4;62
61571;BME280;47463;49.884;10.010;2024-03-08T19:30:01;101180;;;5.5;61
61571;BME280;47463;49.884;10.010;2024-03-08T19:35:01;101180;;;5.2;62
61571;BME280;47463;49.884;10.010;2024-03-08T19:40:01;101160;;;5.2;62
61571;BME280;47463;49.884;10.010;2024-03-08T19:45:01;101160;;;5.2;62
61571;BME280;47463;49.884;10.010;2024-03-08T19:50:01;101170;;;5.3;62
61571;BME280;47463;49.884;10.010;2024-03-08T19:55:01;101160;;;5.3;62
61571;BME280;47463;49.884;10.010;2024-03-08T20:00:01;101150;;;5.3;62
61571;BME280;47463;49.884;10.010;2024-03-08T20:05:01;101150;;;5.4;61
61571;BME280;47463;49.884;10.010;2024-03-08T20:10:01;101140;;;5.2;62
61571;BME280;47463;49.884;10.010;2024-03-08T20:15:01;101140;;;5;62
61571;BME280;47463;49.884;10.010;2024-03-08T20:20:01;101150;;;5.1;62
61571;BME280;47463;49.884;10.010;2024-03-08T20:25:01;101150;;;5;62
61571;BME280;47463;49.884;10.010;2024-03-08T20:30:01;101150;;;4.9;63
61571;BME280;47463;49.884;10.010;2024-03-08T20:35:01;101160;;;4.8;63
61571;BME280;47463;49.884;10.010;2024-03-08T20:40:01;101160;;;4.7;63
61571;BME280;47463;49.884;10.010;2024-03-08T20:45:01;101160;;;4.4;64
61571;BME280;47463;49.884;10.010;2024-03-08T20:50:01;101160;;;4.2;65
61571;BME280;47463;49.884;10.010;2024-03-08T20:55:01;101160;;;4.1;65
61571;BME280;47463;49.884;10.010;2024-03-08T21:00:01;101170;;;4.2;65
61571;BME280;47463;49.884;10.010;2024-03-08T21:05:01;101160;;;4.1;66
61571;BME280;47463;49.884;10.010;2024-03-08T21:10:01;101160;;;3.9;67
61571;BME280;47463;49.884;10.010;2024-03-08T21:15:01;101170;;;3.7;67
61571;BME280;47463;49.884;10.010;2024-03-08T21:20:01;101160;;;3.7;67
61571;BME280;47463;49.884;10.010;2024-03-08T21:25:01;101150;;;3.7;68
61571;BME280;47463;49.884;10.010;2024-03-08T21:30:01;101160;;;3.6;68
61571;BME280;47463;49.884;10.010;2024-03-08T21:35:01;101160;;;3.3;69
61571;BME280;47463;49.884;10.010;2024-03-08T21:40:01;101170;;;3.3;69
61571;BME280;47463;49.884;10.010;2024-03-08T21:45:02;101170;;;3.3;69
61571;BME280;47463;49.884;10.010;2024-03-08T21:50:01;101170;;;3.4;69
61571;BME280;47463;49.884;10.010;2024-03-08T21:55:01;101160;;;3.3;69
61571;BME280;47463;49.884;10.010;2024-03-08T22:00:01;101160;;;3.2;69
61571;BME280;47463;49.884;10.010;2024-03-08T22:05:01;101150;;;3.1;70
61571;BME280;47463;49.884;10.010;2024-03-08T22:10:01;101160;;;3.2;70
61571;BME280;47463;49.884;10.010;2024-03-08T22:15:01;101170;;;3.1;70
61571;BME280;47463;49.884;10.010;2024-03-08T22:20:01;101170;;;3.1;70
61571;BME280;47463;49.884;10.010;2024-03-08T22:25:01;101170;;;3;70
61571;BME280;47463;49.884;10.010;2024-03-08T22:30:01;101170;;;2.8;71
61571;BME280;47463;49.884;10.010;2024-03-08T22:35:01;101170;;;2.8;71
61571;BME280;47463;49.884;10.010;2024-03-08T22:40:01;101170;;;2.7;71
61571;BME280;47463;49.884;10.010;2024-03-08T22:45:01;101160;;;2.6;71
61571;BME280;47463;49.884;10.010;2024-03-08T22:50:01;101160;;;2.6;71
61571;BME280;47463;49.884;10.010;2024-03-08T22:55:01;101150;;;2.5;72
61571;BME280;47463;49.884;10.010;2024-03-08T23:00:01;101150;;;2.5;72
61571;BME280;47463;49.884;10.010;2024-03-08T23:05:01;101150;;;2.4;72
61571;BME280;47463;49.884;10.010;2024-03-08T23:10:01;101140;;;2.5;72
61571;BME280;47463;49.884;10.010;2024-03-08T23:15:01;101140;;;2.3;72
61571;BME280;47463;49.884;10.010;2024-03-08T23:20:01;101150;;;2;73
61571;BME280;47463;49.884;10.010;2024-03-08T23:25:01;101150;;;1.9;73
61571;BME280;47463;49.884;10.010;2024-03-08T23:30:01;101150;;;1.8;73
61571;BME280;47463;49.884;10.010;2024-03-08T23:35:01;101150;;;1.8;74
61571;BME280;47463;49.884;10.010;2024-03-08T23:40:01;101140;;;1.8;74
61571;BME280;47463;49.884;10.010;2024-03-08T23:45:01;101130;;;1.6;74
61571;BME280;47463;49.884;10.010;2024-03-08T23:50:01;101130;;;1.4;75
61571;BME280;47463;49.884;10.010;2024-03-08T23:55:01;101130;;;1.4;75
